| time (UTC) | temp F | wind direction | speed knots | gust knots | rain 1hr in | rain 24hr in | rain mn in | humidity % | barometer mb |
| 20260507232603 | 57 | 0.0 | 0.0 | 0.00 | 0.00 | 0.13 | 100 | ||
| 20260507230558 | 57 | 0.0 | 0.0 | 0.00 | 0.00 | 0.13 | 100 | ||
| 20260507224553 | 57 | 0.0 | 0.0 | 0.00 | 0.00 | 0.13 | 100 | ||
| 20260507222549 | 58 | 0.0 | 0.0 | 0.00 | 0.00 | 0.13 | 100 | ||
| 20260507220543 | 58 | 0.0 | 0.0 | 0.00 | 0.00 | 0.13 | 100 | ||
| 20260507214539 | 56 | 0.0 | 0.0 | 0.00 | 0.00 | 0.13 | 100 | ||
| 20260507212534 | 55 | 0.0 | 0.0 | 0.00 | 0.00 | 0.13 | 100 | ||
| 20260507210529 | 55 | 0.0 | 0.0 | 0.00 | 0.00 | 0.13 | 100 | ||
| 20260507204524 | 55 | 0.0 | 0.0 | 0.00 | 0.00 | 0.13 | 100 | ||
| 20260507202519 | 55 | 0.0 | 0.0 | 0.00 | 0.00 | 0.13 | 100 | ||
| 20260507200515 | 56 | 0.0 | 0.0 | 0.00 | 0.00 | 0.13 | 100 | ||
| 20260507194510 | 56 | 0.0 | 0.0 | 0.01 | 0.00 | 0.13 | 100 | ||
| 20260507192505 | 56 | 0.0 | 0.0 | 0.04 | 0.00 | 0.13 | 100 | ||
| 20260507190500 | 56 | 0.0 | 0.0 | 0.06 | 0.00 | 0.13 | 100 | ||
| 20260507184455 | 58 | 0.0 | 0.0 | 0.04 | 0.00 | 0.12 | 100 | ||
| 20260507182450 | 58 | 0.0 | 0.0 | 0.08 | 0.00 | 0.09 | 100 | ||
| 20260507180446 | 58 | 0.0 | 0.0 | 0.08 | 0.00 | 0.08 | 100 | ||
| 20260507174441 | 59 | 0.0 | 0.0 | 0.08 | 0.00 | 0.08 | 100 | ||
| 20260507172436 | 62 | 0.0 | 0.0 | 0.01 | 0.00 | 0.01 | 100 | ||
| 20260507170431 | 63 | 0.0 | 0.0 | 0.00 | 0.00 | 0.00 | 100 | ||
| 20260507164426 | 66 | 0.0 | 0.0 | 0.00 | 0.00 | 0.00 | 100 | ||
| 20260507162422 | 68 | 0.0 | 0.0 | 0.00 | 0.00 | 0.00 | 100 | ||
| 20260507160417 | 69 | 0.0 | 0.0 | 0.00 | 0.00 | 0.00 | 100 | ||
| 20260507154412 | 72 | 0.0 | 0.0 | 0.00 | 0.00 | 0.00 | 100 | ||
| 20260507152407 | 72 | 0.0 | 0.0 | 0.00 | 0.00 | 0.00 | 100 | ||
| 20260507150403 | 73 | 0.0 | 0.0 | 0.00 | 0.00 | 0.00 | 100 | ||
| 20260507144358 | 77 | 0.0 | 0.0 | 0.00 | 0.00 | 0.00 | 100 | ||
| 20260507142353 | 77 | 0.0 | 0.0 | 0.00 | 0.00 | 0.00 | 100 | ||
| 20260507140348 | 76 | 0.0 | 0.0 | 0.00 | 0.00 | 0.00 | 100 | ||
| 20260507134343 | 74 | 0.0 | 0.0 | 0.00 | 0.00 | 0.00 | 100 | ||
| 20260507132339 | 75 | 0.0 | 0.0 | 0.00 | 0.00 | 0.00 | 100 | ||
| 20260507130334 | 74 | 0.0 | 0.0 | 0.00 | 0.00 | 0.00 | 100 | ||
| 20260507122324 | 72 | 0.0 | 0.0 | 0.00 | 0.00 | 0.00 | 100 | ||
| 20260507120319 | 71 | 0.0 | 0.0 | 0.00 | 0.00 | 0.00 | 100 | ||
| 20260507114314 | 69 | 0.0 | 0.0 | 0.00 | 0.00 | 0.00 | 100 | ||
| 20260507112309 | 68 | 0.0 | 0.0 | 0.00 | 0.00 | 0.00 | 100 | ||
| 20260507110304 | 69 | 0.0 | 0.0 | 0.00 | 0.00 | 0.00 | 100 | ||
| 20260507104259 | 68 | 0.0 | 0.0 | 0.00 | 0.00 | 0.00 | 100 | ||
| 20260507102254 | 67 | 0.0 | 0.0 | 0.00 | 0.00 | 0.00 | 100 | ||
| 20260507100249 | 68 | 0.0 | 0.0 | 0.00 | 0.00 | 0.00 | 100 | ||
| 20260507094245 | 67 | 0.0 | 0.0 | 0.00 | 0.00 | 0.00 | 100 | ||
| 20260507092240 | 68 | 0.0 | 0.0 | 0.00 | 0.00 | 0.00 | 100 | ||
| 20260507090235 | 66 | 0.0 | 0.0 | 0.00 | 0.00 | 0.00 | 100 | ||
| 20260507084230 | 66 | 0.0 | 0.0 | 0.00 | 0.00 | 0.00 | 100 | ||
| 20260507082226 | 65 | 0.0 | 0.0 | 0.00 | 0.00 | 0.00 | 100 | ||
| 20260507080221 | 63 | 0.0 | 0.0 | 0.00 | 0.00 | 0.00 | 100 | ||
| 20260507074216 | 63 | 0.0 | 0.0 | 0.00 | 0.00 | 0.00 | 100 | ||
| 20260507072211 | 62 | 0.0 | 0.0 | 0.00 | 0.00 | 0.00 | 100 | ||
| 20260507070206 | 62 | 0.0 | 0.0 | 0.00 | 0.00 | 0.00 | 100 | ||
| 20260507064201 | 62 | 0.0 | 0.0 | 0.00 | 0.00 | 0.00 | 100 | ||
| 20260507062156 | 61 | 0.0 | 0.0 | 0.00 | 0.00 | 0.00 | 100 | ||
| 20260507060150 | 60 | 0.0 | 0.0 | 0.00 | 0.00 | 0.00 | 100 | ||
| 20260507054146 | 60 | 0.0 | 0.0 | 0.00 | 0.00 | 0.00 | 100 | ||
| 20260507052141 | 59 | 0.0 | 0.0 | 0.00 | 0.00 | 0.00 | 100 | ||
| 20260507050415 | 58 | 0.0 | 0.0 | 0.00 | 0.00 | 0.00 | 100 | ||
| 20260507050142 | 58 | 0.0 | 0.0 | 0.00 | 0.00 | 0.00 | 100 | ||
| 20260507044131 | 57 | 0.0 | 0.0 | 0.00 | 0.00 | 0.00 | 100 | ||
| 20260507042215 | 57 | 0.0 | 0.0 | 0.00 | 0.00 | 0.00 | 100 | ||
| 20260507042126 | 57 | 0.0 | 0.0 | 0.00 | 0.00 | 0.00 | 100 | ||
| 20260507040122 | 56 | 0.0 | 0.0 | 0.00 | 0.00 | 0.00 | 100 | ||
| 20260507034117 | 56 | 0.0 | 0.0 | 0.00 | 0.00 | 0.00 | 100 | ||
| 20260507032112 | 56 | 0.0 | 0.0 | 0.00 | 0.00 | 0.00 | 100 | ||
| 20260507030107 | 56 | 0.0 | 0.0 | 0.00 | 0.00 | 0.00 | 100 | ||
| 20260507024102 | 56 | 0.0 | 0.0 | 0.00 | 0.00 | 0.00 | 100 | ||
| 20260507022057 | 57 | 0.0 | 0.0 | 0.00 | 0.00 | 0.00 | 100 | ||
| 20260507020053 | 58 | 0.0 | 0.0 | 0.00 | 0.00 | 0.00 | 100 | ||
| 20260507014048 | 58 | 0.0 | 0.0 | 0.00 | 0.00 | 0.00 | 100 | ||
| 20260507012043 | 58 | 0.0 | 0.0 | 0.00 | 0.00 | 0.00 | 100 | ||
| 20260507010038 | 59 | 0.0 | 0.0 | 0.00 | 0.00 | 0.00 | 100 | ||
| 20260507004033 | 60 | 0.0 | 0.0 | 0.00 | 0.00 | 0.00 | 100 | ||
| 20260507002028 | 60 | 0.0 | 0.0 | 0.00 | 0.00 | 0.00 | 100 | ||
| 20260507000024 | 61 | 0.0 | 0.0 | 0.00 | 0.00 | 0.00 | 100 | ||
| 20260506234019 | 61 | 0.0 | 0.0 | 0.00 | 0.00 | 0.00 | 100 |